sensor_id;sensor_type;location;lat;lon;timestamp;P1;durP1;ratioP1;P2;durP2;ratioP2
43529;SDS011;55654;50.966;6.878;2023-08-30T00:00:45;21.20;;;16.83;;
43529;SDS011;55654;50.966;6.878;2023-08-30T00:03:13;17.63;;;14.43;;
43529;SDS011;55654;50.966;6.878;2023-08-30T00:05:39;16.90;;;14.07;;
43529;SDS011;55654;50.966;6.878;2023-08-30T00:08:05;17.77;;;14.32;;
43529;SDS011;55654;50.966;6.878;2023-08-30T00:10:31;18.08;;;13.27;;
43529;SDS011;55654;50.966;6.878;2023-08-30T00:12:57;17.17;;;14.38;;
43529;SDS011;55654;50.966;6.878;2023-08-30T00:15:23;17.30;;;13.80;;
43529;SDS011;55654;50.966;6.878;2023-08-30T00:17:49;17.17;;;13.23;;
43529;SDS011;55654;50.966;6.878;2023-08-30T00:20:17;19.52;;;14.15;;
43529;SDS011;55654;50.966;6.878;2023-08-30T00:22:43;17.00;;;12.38;;
43529;SDS011;55654;50.966;6.878;2023-08-30T00:25:09;17.58;;;14.02;;
43529;SDS011;55654;50.966;6.878;2023-08-30T00:27:37;20.42;;;14.18;;
43529;SDS011;55654;50.966;6.878;2023-08-30T00:30:03;20.85;;;14.00;;
43529;SDS011;55654;50.966;6.878;2023-08-30T00:32:33;17.63;;;14.23;;
43529;SDS011;55654;50.966;6.878;2023-08-30T00:35:01;16.63;;;13.32;;
43529;SDS011;55654;50.966;6.878;2023-08-30T00:37:28;18.30;;;13.13;;
43529;SDS011;55654;50.966;6.878;2023-08-30T00:39:53;20.13;;;12.85;;
43529;SDS011;55654;50.966;6.878;2023-08-30T00:42:22;15.30;;;11.32;;
43529;SDS011;55654;50.966;6.878;2023-08-30T00:44:50;16.48;;;13.13;;
43529;SDS011;55654;50.966;6.878;2023-08-30T00:47:19;14.82;;;12.88;;
43529;SDS011;55654;50.966;6.878;2023-08-30T00:49:45;16.05;;;12.70;;
43529;SDS011;55654;50.966;6.878;2023-08-30T00:52:11;23.95;;;12.75;;
43529;SDS011;55654;50.966;6.878;2023-08-30T00:54:37;18.05;;;12.32;;
43529;SDS011;55654;50.966;6.878;2023-08-30T00:57:04;17.38;;;13.45;;
43529;SDS011;55654;50.966;6.878;2023-08-30T00:59:30;17.63;;;13.07;;
43529;SDS011;55654;50.966;6.878;2023-08-30T01:01:58;15.75;;;12.68;;
43529;SDS011;55654;50.966;6.878;2023-08-30T01:04:28;22.38;;;12.27;;
43529;SDS011;55654;50.966;6.878;2023-08-30T01:06:54;21.45;;;13.43;;
43529;SDS011;55654;50.966;6.878;2023-08-30T01:09:20;18.52;;;13.07;;
43529;SDS011;55654;50.966;6.878;2023-08-30T01:14:38;13.35;;;11.45;;
43529;SDS011;55654;50.966;6.878;2023-08-30T01:17:07;13.40;;;11.90;;
43529;SDS011;55654;50.966;6.878;2023-08-30T01:19:56;13.48;;;10.35;;
43529;SDS011;55654;50.966;6.878;2023-08-30T01:25:00;11.95;;;10.27;;
43529;SDS011;55654;50.966;6.878;2023-08-30T01:27:31;15.77;;;10.95;;
43529;SDS011;55654;50.966;6.878;2023-08-30T01:30:02;12.25;;;10.75;;
43529;SDS011;55654;50.966;6.878;2023-08-30T01:32:31;14.00;;;10.30;;
43529;SDS011;55654;50.966;6.878;2023-08-30T01:34:58;11.98;;;10.75;;
43529;SDS011;55654;50.966;6.878;2023-08-30T01:37:27;19.02;;;11.02;;
43529;SDS011;55654;50.966;6.878;2023-08-30T01:39:55;20.02;;;10.27;;
43529;SDS011;55654;50.966;6.878;2023-08-30T01:42:25;14.77;;;10.20;;
43529;SDS011;55654;50.966;6.878;2023-08-30T01:44:51;14.68;;;9.93;;
43529;SDS011;55654;50.966;6.878;2023-08-30T01:47:22;14.57;;;9.68;;
43529;SDS011;55654;50.966;6.878;2023-08-30T01:49:49;14.43;;;9.52;;
43529;SDS011;55654;50.966;6.878;2023-08-30T01:52:15;14.98;;;9.73;;
43529;SDS011;55654;50.966;6.878;2023-08-30T01:54:44;19.02;;;9.60;;
43529;SDS011;55654;50.966;6.878;2023-08-30T01:57:11;14.88;;;9.00;;
43529;SDS011;55654;50.966;6.878;2023-08-30T01:59:37;11.63;;;9.43;;
43529;SDS011;55654;50.966;6.878;2023-08-30T02:02:03;14.52;;;8.35;;
43529;SDS011;55654;50.966;6.878;2023-08-30T02:04:32;12.75;;;9.35;;
43529;SDS011;55654;50.966;6.878;2023-08-30T02:07:00;11.65;;;9.40;;
43529;SDS011;55654;50.966;6.878;2023-08-30T02:09:27;14.98;;;9.20;;
43529;SDS011;55654;50.966;6.878;2023-08-30T02:11:54;11.18;;;9.43;;
43529;SDS011;55654;50.966;6.878;2023-08-30T02:14:21;17.52;;;9.32;;
43529;SDS011;55654;50.966;6.878;2023-08-30T02:16:48;14.55;;;9.88;;
43529;SDS011;55654;50.966;6.878;2023-08-30T02:19:14;12.52;;;9.20;;
43529;SDS011;55654;50.966;6.878;2023-08-30T02:21:46;15.80;;;9.38;;
43529;SDS011;55654;50.966;6.878;2023-08-30T02:24:12;13.23;;;9.75;;
43529;SDS011;55654;50.966;6.878;2023-08-30T02:26:38;12.48;;;9.10;;
43529;SDS011;55654;50.966;6.878;2023-08-30T02:29:04;11.20;;;9.43;;
43529;SDS011;55654;50.966;6.878;2023-08-30T02:31:33;14.23;;;9.65;;
43529;SDS011;55654;50.966;6.878;2023-08-30T02:34:01;12.35;;;8.68;;
43529;SDS011;55654;50.966;6.878;2023-08-30T02:36:27;14.65;;;9.50;;
43529;SDS011;55654;50.966;6.878;2023-08-30T02:38:56;15.35;;;9.57;;
43529;SDS011;55654;50.966;6.878;2023-08-30T02:41:22;9.77;;;8.77;;
43529;SDS011;55654;50.966;6.878;2023-08-30T02:43:48;12.43;;;8.93;;
43529;SDS011;55654;50.966;6.878;2023-08-30T02:46:14;11.88;;;8.52;;
43529;SDS011;55654;50.966;6.878;2023-08-30T02:48:40;13.30;;;8.95;;
43529;SDS011;55654;50.966;6.878;2023-08-30T02:51:06;9.45;;;8.40;;
43529;SDS011;55654;50.966;6.878;2023-08-30T02:53:32;11.15;;;8.75;;
43529;SDS011;55654;50.966;6.878;2023-08-30T02:55:58;14.45;;;9.38;;
43529;SDS011;55654;50.966;6.878;2023-08-30T02:58:23;14.32;;;9.50;;
43529;SDS011;55654;50.966;6.878;2023-08-30T03:00:49;13.40;;;9.63;;
43529;SDS011;55654;50.966;6.878;2023-08-30T03:03:18;12.43;;;8.65;;
43529;SDS011;55654;50.966;6.878;2023-08-30T03:05:44;12.88;;;8.65;;
43529;SDS011;55654;50.966;6.878;2023-08-30T03:08:10;14.32;;;9.15;;
43529;SDS011;55654;50.966;6.878;2023-08-30T03:10:38;12.65;;;8.05;;
43529;SDS011;55654;50.966;6.878;2023-08-30T03:13:06;12.07;;;7.93;;
43529;SDS011;55654;50.966;6.878;2023-08-30T03:15:32;10.43;;;8.80;;
43529;SDS011;55654;50.966;6.878;2023-08-30T03:17:59;10.07;;;8.20;;
43529;SDS011;55654;50.966;6.878;2023-08-30T03:20:25;13.27;;;8.88;;
43529;SDS011;55654;50.966;6.878;2023-08-30T03:22:53;18.38;;;8.93;;
43529;SDS011;55654;50.966;6.878;2023-08-30T03:25:21;12.40;;;8.60;;
43529;SDS011;55654;50.966;6.878;2023-08-30T03:27:47;12.50;;;9.17;;
43529;SDS011;55654;50.966;6.878;2023-08-30T03:30:15;14.63;;;9.53;;
43529;SDS011;55654;50.966;6.878;2023-08-30T03:32:43;15.33;;;9.10;;
43529;SDS011;55654;50.966;6.878;2023-08-30T03:35:09;14.10;;;8.43;;
43529;SDS011;55654;50.966;6.878;2023-08-30T03:37:36;16.10;;;9.13;;
43529;SDS011;55654;50.966;6.878;2023-08-30T03:40:02;11.70;;;8.83;;
43529;SDS011;55654;50.966;6.878;2023-08-30T03:42:29;12.50;;;8.50;;
43529;SDS011;55654;50.966;6.878;2023-08-30T03:44:58;9.67;;;8.67;;
43529;SDS011;55654;50.966;6.878;2023-08-30T03:47:24;12.63;;;8.57;;
43529;SDS011;55654;50.966;6.878;2023-08-30T03:49:50;15.27;;;8.03;;
43529;SDS011;55654;50.966;6.878;2023-08-30T03:52:16;11.60;;;8.45;;
43529;SDS011;55654;50.966;6.878;2023-08-30T03:54:42;11.07;;;8.83;;
43529;SDS011;55654;50.966;6.878;2023-08-30T03:57:07;15.23;;;9.13;;
43529;SDS011;55654;50.966;6.878;2023-08-30T03:59:33;11.20;;;8.33;;
43529;SDS011;55654;50.966;6.878;2023-08-30T04:01:59;10.83;;;8.37;;
43529;SDS011;55654;50.966;6.878;2023-08-30T04:04:25;12.93;;;8.13;;
43529;SDS011;55654;50.966;6.878;2023-08-30T04:06:54;12.47;;;7.73;;
43529;SDS011;55654;50.966;6.878;2023-08-30T04:09:20;11.47;;;8.03;;
43529;SDS011;55654;50.966;6.878;2023-08-30T04:11:50;11.07;;;8.20;;
43529;SDS011;55654;50.966;6.878;2023-08-30T04:14:16;9.47;;;7.97;;
43529;SDS011;55654;50.966;6.878;2023-08-30T04:16:42;13.20;;;8.17;;
43529;SDS011;55654;50.966;6.878;2023-08-30T04:19:08;11.83;;;8.50;;
43529;SDS011;55654;50.966;6.878;2023-08-30T04:21:34;12.70;;;7.63;;
43529;SDS011;55654;50.966;6.878;2023-08-30T04:24:00;11.20;;;7.47;;
43529;SDS011;55654;50.966;6.878;2023-08-30T04:26:27;10.23;;;6.67;;
43529;SDS011;55654;50.966;6.878;2023-08-30T04:28:55;14.23;;;8.93;;
43529;SDS011;55654;50.966;6.878;2023-08-30T04:31:21;11.00;;;7.90;;
43529;SDS011;55654;50.966;6.878;2023-08-30T04:33:47;10.93;;;7.70;;
43529;SDS011;55654;50.966;6.878;2023-08-30T04:36:13;11.23;;;7.57;;
43529;SDS011;55654;50.966;6.878;2023-08-30T04:38:41;10.43;;;8.20;;
43529;SDS011;55654;50.966;6.878;2023-08-30T04:41:09;9.93;;;6.87;;
43529;SDS011;55654;50.966;6.878;2023-08-30T04:43:36;9.40;;;7.93;;
43529;SDS011;55654;50.966;6.878;2023-08-30T04:46:04;10.53;;;8.30;;
43529;SDS011;55654;50.966;6.878;2023-08-30T04:48:31;12.67;;;8.20;;
43529;SDS011;55654;50.966;6.878;2023-08-30T04:51:02;13.20;;;8.90;;
43529;SDS011;55654;50.966;6.878;2023-08-30T04:53:28;13.53;;;8.10;;
43529;SDS011;55654;50.966;6.878;2023-08-30T04:55:54;12.33;;;8.50;;
43529;SDS011;55654;50.966;6.878;2023-08-30T04:58:20;11.67;;;9.03;;
43529;SDS011;55654;50.966;6.878;2023-08-30T05:00:46;9.73;;;8.13;;
43529;SDS011;55654;50.966;6.878;2023-08-30T05:03:12;9.33;;;8.20;;
43529;SDS011;55654;50.966;6.878;2023-08-30T05:05:38;12.50;;;8.60;;
43529;SDS011;55654;50.966;6.878;2023-08-30T05:08:04;12.10;;;8.60;;
43529;SDS011;55654;50.966;6.878;2023-08-30T05:10:32;14.07;;;8.63;;
43529;SDS011;55654;50.966;6.878;2023-08-30T05:12:58;13.40;;;8.20;;
43529;SDS011;55654;50.966;6.878;2023-08-30T05:15:26;15.13;;;8.43;;
43529;SDS011;55654;50.966;6.878;2023-08-30T05:17:54;14.30;;;8.90;;
43529;SDS011;55654;50.966;6.878;2023-08-30T05:20:20;11.87;;;8.70;;
43529;SDS011;55654;50.966;6.878;2023-08-30T05:22:46;16.03;;;8.33;;
43529;SDS011;55654;50.966;6.878;2023-08-30T05:25:12;13.73;;;9.60;;
43529;SDS011;55654;50.966;6.878;2023-08-30T05:27:41;13.63;;;9.03;;
43529;SDS011;55654;50.966;6.878;2023-08-30T05:30:07;13.17;;;9.67;;
43529;SDS011;55654;50.966;6.878;2023-08-30T05:32:33;12.17;;;9.60;;
43529;SDS011;55654;50.966;6.878;2023-08-30T05:34:59;11.70;;;9.00;;
43529;SDS011;55654;50.966;6.878;2023-08-30T05:37:25;15.87;;;10.03;;
43529;SDS011;55654;50.966;6.878;2023-08-30T05:39:51;17.40;;;9.70;;
43529;SDS011;55654;50.966;6.878;2023-08-30T05:42:17;20.83;;;11.20;;
43529;SDS011;55654;50.966;6.878;2023-08-30T05:44:43;16.17;;;9.47;;
43529;SDS011;55654;50.966;6.878;2023-08-30T05:47:09;18.33;;;10.27;;
43529;SDS011;55654;50.966;6.878;2023-08-30T05:49:39;17.10;;;9.87;;
43529;SDS011;55654;50.966;6.878;2023-08-30T05:52:05;12.73;;;9.80;;
43529;SDS011;55654;50.966;6.878;2023-08-30T05:54:34;18.37;;;9.73;;
43529;SDS011;55654;50.966;6.878;2023-08-30T05:57:00;16.40;;;9.57;;
43529;SDS011;55654;50.966;6.878;2023-08-30T05:59:28;12.83;;;9.50;;
43529;SDS011;55654;50.966;6.878;2023-08-30T06:01:54;15.53;;;10.13;;
43529;SDS011;55654;50.966;6.878;2023-08-30T06:04:20;13.83;;;9.67;;
43529;SDS011;55654;50.966;6.878;2023-08-30T06:06:47;15.63;;;10.70;;
43529;SDS011;55654;50.966;6.878;2023-08-30T06:09:13;14.13;;;10.53;;
43529;SDS011;55654;50.966;6.878;2023-08-30T06:11:39;17.60;;;10.70;;
43529;SDS011;55654;50.966;6.878;2023-08-30T06:14:07;15.33;;;9.80;;
43529;SDS011;55654;50.966;6.878;2023-08-30T06:16:33;19.73;;;11.30;;
43529;SDS011;55654;50.966;6.878;2023-08-30T06:18:59;13.80;;;11.15;;
43529;SDS011;55654;50.966;6.878;2023-08-30T06:21:25;14.32;;;9.90;;
43529;SDS011;55654;50.966;6.878;2023-08-30T06:23:52;13.63;;;10.02;;
43529;SDS011;55654;50.966;6.878;2023-08-30T06:26:18;16.05;;;10.48;;
43529;SDS011;55654;50.966;6.878;2023-08-30T06:28:44;11.18;;;9.40;;
43529;SDS011;55654;50.966;6.878;2023-08-30T06:31:10;17.45;;;10.30;;
43529;SDS011;55654;50.966;6.878;2023-08-30T06:33:36;12.60;;;9.55;;
43529;SDS011;55654;50.966;6.878;2023-08-30T06:36:03;14.80;;;10.60;;
43529;SDS011;55654;50.966;6.878;2023-08-30T06:38:30;15.25;;;9.80;;
43529;SDS011;55654;50.966;6.878;2023-08-30T06:40:57;14.50;;;8.70;;
43529;SDS011;55654;50.966;6.878;2023-08-30T06:43:23;13.57;;;9.20;;
43529;SDS011;55654;50.966;6.878;2023-08-30T06:45:49;16.63;;;9.23;;
43529;SDS011;55654;50.966;6.878;2023-08-30T06:48:15;10.15;;;8.48;;
43529;SDS011;55654;50.966;6.878;2023-08-30T06:50:41;15.10;;;8.32;;
43529;SDS011;55654;50.966;6.878;2023-08-30T06:53:07;11.43;;;8.18;;
43529;SDS011;55654;50.966;6.878;2023-08-30T06:55:34;14.88;;;7.97;;
43529;SDS011;55654;50.966;6.878;2023-08-30T06:58:01;10.07;;;6.47;;
43529;SDS011;55654;50.966;6.878;2023-08-30T07:00:28;14.00;;;6.32;;
43529;SDS011;55654;50.966;6.878;2023-08-30T07:02:57;8.93;;;5.55;;
43529;SDS011;55654;50.966;6.878;2023-08-30T07:05:24;9.38;;;6.82;;
43529;SDS011;55654;50.966;6.878;2023-08-30T07:07:50;8.68;;;6.15;;
43529;SDS011;55654;50.966;6.878;2023-08-30T07:10:16;8.30;;;6.00;;
43529;SDS011;55654;50.966;6.878;2023-08-30T07:12:42;9.27;;;6.63;;
43529;SDS011;55654;50.966;6.878;2023-08-30T07:15:08;9.23;;;6.20;;
43529;SDS011;55654;50.966;6.878;2023-08-30T07:17:34;16.85;;;7.68;;
43529;SDS011;55654;50.966;6.878;2023-08-30T07:20:00;7.93;;;5.72;;
43529;SDS011;55654;50.966;6.878;2023-08-30T07:22:28;9.55;;;5.70;;
43529;SDS011;55654;50.966;6.878;2023-08-30T07:24:54;10.35;;;6.38;;
43529;SDS011;55654;50.966;6.878;2023-08-30T07:27:20;7.68;;;5.68;;
43529;SDS011;55654;50.966;6.878;2023-08-30T07:29:46;8.80;;;5.97;;
43529;SDS011;55654;50.966;6.878;2023-08-30T07:32:12;9.35;;;5.78;;
43529;SDS011;55654;50.966;6.878;2023-08-30T07:34:38;12.40;;;5.90;;
43529;SDS011;55654;50.966;6.878;2023-08-30T07:37:04;13.13;;;6.57;;
43529;SDS011;55654;50.966;6.878;2023-08-30T07:39:30;9.55;;;5.18;;
43529;SDS011;55654;50.966;6.878;2023-08-30T07:41:59;6.88;;;4.53;;
43529;SDS011;55654;50.966;6.878;2023-08-30T07:44:25;12.77;;;5.20;;
43529;SDS011;55654;50.966;6.878;2023-08-30T07:46:51;14.68;;;4.97;;
43529;SDS011;55654;50.966;6.878;2023-08-30T07:49:19;9.40;;;4.80;;
43529;SDS011;55654;50.966;6.878;2023-08-30T07:51:45;8.23;;;5.20;;
43529;SDS011;55654;50.966;6.878;2023-08-30T07:54:11;9.50;;;4.97;;
43529;SDS011;55654;50.966;6.878;2023-08-30T07:56:37;7.32;;;4.95;;
43529;SDS011;55654;50.966;6.878;2023-08-30T07:59:03;10.15;;;5.03;;
43529;SDS011;55654;50.966;6.878;2023-08-30T08:01:34;7.93;;;4.30;;
43529;SDS011;55654;50.966;6.878;2023-08-30T08:04:00;6.57;;;4.38;;
43529;SDS011;55654;50.966;6.878;2023-08-30T08:06:26;9.43;;;4.20;;
43529;SDS011;55654;50.966;6.878;2023-08-30T08:08:52;6.53;;;3.92;;
43529;SDS011;55654;50.966;6.878;2023-08-30T08:11:18;10.30;;;4.47;;
43529;SDS011;55654;50.966;6.878;2023-08-30T08:13:44;6.18;;;3.97;;
43529;SDS011;55654;50.966;6.878;2023-08-30T08:16:12;6.57;;;4.03;;
43529;SDS011;55654;50.966;6.878;2023-08-30T08:18:38;7.72;;;3.50;;
43529;SDS011;55654;50.966;6.878;2023-08-30T08:21:04;7.03;;;3.65;;
43529;SDS011;55654;50.966;6.878;2023-08-30T08:23:30;5.07;;;3.50;;
43529;SDS011;55654;50.966;6.878;2023-08-30T08:25:59;5.78;;;3.20;;
43529;SDS011;55654;50.966;6.878;2023-08-30T08:28:26;10.63;;;2.65;;
43529;SDS011;55654;50.966;6.878;2023-08-30T08:30:52;5.38;;;3.22;;
43529;SDS011;55654;50.966;6.878;2023-08-30T08:33:18;5.93;;;3.05;;
43529;SDS011;55654;50.966;6.878;2023-08-30T08:35:44;3.95;;;1.90;;
43529;SDS011;55654;50.966;6.878;2023-08-30T08:38:13;5.78;;;2.63;;
43529;SDS011;55654;50.966;6.878;2023-08-30T08:40:41;4.78;;;2.63;;
43529;SDS011;55654;50.966;6.878;2023-08-30T08:43:09;7.53;;;3.17;;
43529;SDS011;55654;50.966;6.878;2023-08-30T08:45:36;4.28;;;2.90;;
43529;SDS011;55654;50.966;6.878;2023-08-30T08:48:05;5.57;;;2.75;;
43529;SDS011;55654;50.966;6.878;2023-08-30T08:50:33;6.97;;;2.50;;
43529;SDS011;55654;50.966;6.878;2023-08-30T08:53:02;4.97;;;2.42;;
43529;SDS011;55654;50.966;6.878;2023-08-30T08:55:31;4.90;;;2.35;;
43529;SDS011;55654;50.966;6.878;2023-08-30T08:58:00;3.55;;;1.70;;
43529;SDS011;55654;50.966;6.878;2023-08-30T09:00:30;5.78;;;1.95;;
43529;SDS011;55654;50.966;6.878;2023-08-30T09:02:56;6.43;;;2.03;;
43529;SDS011;55654;50.966;6.878;2023-08-30T09:05:22;4.63;;;2.00;;
43529;SDS011;55654;50.966;6.878;2023-08-30T09:07:48;4.10;;;2.05;;
43529;SDS011;55654;50.966;6.878;2023-08-30T09:10:18;8.25;;;2.33;;
43529;SDS011;55654;50.966;6.878;2023-08-30T09:12:44;3.60;;;2.13;;
43529;SDS011;55654;50.966;6.878;2023-08-30T09:15:10;6.53;;;2.30;;
43529;SDS011;55654;50.966;6.878;2023-08-30T09:17:36;5.25;;;2.30;;
43529;SDS011;55654;50.966;6.878;2023-08-30T09:20:08;5.85;;;2.28;;
43529;SDS011;55654;50.966;6.878;2023-08-30T09:25:04;4.82;;;2.20;;
43529;SDS011;55654;50.966;6.878;2023-08-30T09:27:33;6.45;;;2.10;;
43529;SDS011;55654;50.966;6.878;2023-08-30T09:29:59;5.85;;;2.30;;
43529;SDS011;55654;50.966;6.878;2023-08-30T09:32:25;4.93;;;2.40;;
43529;SDS011;55654;50.966;6.878;2023-08-30T09:34:51;5.60;;;2.00;;
43529;SDS011;55654;50.966;6.878;2023-08-30T09:37:23;4.97;;;1.90;;
43529;SDS011;55654;50.966;6.878;2023-08-30T09:39:51;7.65;;;2.28;;
43529;SDS011;55654;50.966;6.878;2023-08-30T09:42:18;4.38;;;1.98;;
43529;SDS011;55654;50.966;6.878;2023-08-30T09:44:47;3.75;;;2.08;;
43529;SDS011;55654;50.966;6.878;2023-08-30T09:47:13;4.00;;;2.00;;
43529;SDS011;55654;50.966;6.878;2023-08-30T09:49:43;4.55;;;2.30;;
43529;SDS011;55654;50.966;6.878;2023-08-30T09:52:10;4.22;;;2.30;;
43529;SDS011;55654;50.966;6.878;2023-08-30T09:54:36;5.70;;;2.17;;
43529;SDS011;55654;50.966;6.878;2023-08-30T09:57:06;5.93;;;2.40;;
43529;SDS011;55654;50.966;6.878;2023-08-30T09:59:33;9.95;;;2.33;;
43529;SDS011;55654;50.966;6.878;2023-08-30T10:01:59;3.70;;;2.00;;
43529;SDS011;55654;50.966;6.878;2023-08-30T10:04:25;4.47;;;2.53;;
43529;SDS011;55654;50.966;6.878;2023-08-30T10:06:52;6.53;;;2.60;;
43529;SDS011;55654;50.966;6.878;2023-08-30T10:09:19;5.93;;;2.33;;
43529;SDS011;55654;50.966;6.878;2023-08-30T10:11:47;8.95;;;1.88;;
43529;SDS011;55654;50.966;6.878;2023-08-30T10:14:14;2.90;;;1.88;;
43529;SDS011;55654;50.966;6.878;2023-08-30T10:16:46;5.85;;;1.83;;
43529;SDS011;55654;50.966;6.878;2023-08-30T10:19:17;5.18;;;2.00;;
43529;SDS011;55654;50.966;6.878;2023-08-30T10:21:43;4.15;;;1.83;;
43529;SDS011;55654;50.966;6.878;2023-08-30T10:24:10;4.13;;;2.00;;
43529;SDS011;55654;50.966;6.878;2023-08-30T10:26:37;5.15;;;2.72;;
43529;SDS011;55654;50.966;6.878;2023-08-30T10:29:03;3.90;;;2.17;;
43529;SDS011;55654;50.966;6.878;2023-08-30T10:31:29;5.07;;;1.90;;
43529;SDS011;55654;50.966;6.878;2023-08-30T10:33:58;6.95;;;1.98;;
43529;SDS011;55654;50.966;6.878;2023-08-30T10:36:24;3.92;;;2.08;;
43529;SDS011;55654;50.966;6.878;2023-08-30T10:38:51;4.25;;;2.15;;
43529;SDS011;55654;50.966;6.878;2023-08-30T10:41:21;3.97;;;1.88;;
43529;SDS011;55654;50.966;6.878;2023-08-30T10:43:51;3.92;;;2.10;;
43529;SDS011;55654;50.966;6.878;2023-08-30T10:46:28;4.35;;;2.35;;
43529;SDS011;55654;50.966;6.878;2023-08-30T10:48:54;4.40;;;1.98;;
43529;SDS011;55654;50.966;6.878;2023-08-30T10:51:35;4.53;;;1.95;;
43529;SDS011;55654;50.966;6.878;2023-08-30T10:54:09;3.80;;;2.00;;
43529;SDS011;55654;50.966;6.878;2023-08-30T10:56:35;6.95;;;2.10;;
43529;SDS011;55654;50.966;6.878;2023-08-30T10:59:15;12.25;;;3.20;;
43529;SDS011;55654;50.966;6.878;2023-08-30T11:01:42;6.55;;;3.65;;
43529;SDS011;55654;50.966;6.878;2023-08-30T11:04:11;5.18;;;3.38;;
43529;SDS011;55654;50.966;6.878;2023-08-30T11:06:38;7.70;;;3.15;;
43529;SDS011;55654;50.966;6.878;2023-08-30T11:09:04;8.57;;;3.47;;
43529;SDS011;55654;50.966;6.878;2023-08-30T11:11:30;10.35;;;4.60;;
43529;SDS011;55654;50.966;6.878;2023-08-30T11:14:08;11.18;;;4.47;;
43529;SDS011;55654;50.966;6.878;2023-08-30T11:16:36;18.95;;;4.85;;
43529;SDS011;55654;50.966;6.878;2023-08-30T11:19:06;15.57;;;4.85;;
43529;SDS011;55654;50.966;6.878;2023-08-30T11:21:33;11.85;;;4.50;;
43529;SDS011;55654;50.966;6.878;2023-08-30T11:24:02;11.00;;;4.25;;
43529;SDS011;55654;50.966;6.878;2023-08-30T11:26:28;14.10;;;3.75;;
43529;SDS011;55654;50.966;6.878;2023-08-30T11:28:54;17.95;;;4.28;;
43529;SDS011;55654;50.966;6.878;2023-08-30T11:31:24;10.00;;;4.18;;
43529;SDS011;55654;50.966;6.878;2023-08-30T11:33:52;9.35;;;4.78;;
43529;SDS011;55654;50.966;6.878;2023-08-30T11:36:20;43.88;;;7.70;;
43529;SDS011;55654;50.966;6.878;2023-08-30T11:38:47;11.30;;;6.53;;
43529;SDS011;55654;50.966;6.878;2023-08-30T11:41:13;12.13;;;6.78;;
43529;SDS011;55654;50.966;6.878;2023-08-30T11:43:39;20.13;;;7.63;;
43529;SDS011;55654;50.966;6.878;2023-08-30T11:46:05;12.52;;;7.57;;
43529;SDS011;55654;50.966;6.878;2023-08-30T11:48:31;16.00;;;8.05;;
43529;SDS011;55654;50.966;6.878;2023-08-30T11:51:00;15.18;;;7.80;;
43529;SDS011;55654;50.966;6.878;2023-08-30T11:53:26;19.52;;;7.53;;
43529;SDS011;55654;50.966;6.878;2023-08-30T11:55:55;22.35;;;8.10;;
43529;SDS011;55654;50.966;6.878;2023-08-30T11:58:21;17.30;;;7.45;;
43529;SDS011;55654;50.966;6.878;2023-08-30T12:00:48;15.90;;;7.22;;
43529;SDS011;55654;50.966;6.878;2023-08-30T12:03:15;11.85;;;7.38;;
43529;SDS011;55654;50.966;6.878;2023-08-30T12:05:45;19.65;;;9.00;;
43529;SDS011;55654;50.966;6.878;2023-08-30T12:08:24;16.02;;;8.90;;
43529;SDS011;55654;50.966;6.878;2023-08-30T12:10:50;16.50;;;7.65;;
43529;SDS011;55654;50.966;6.878;2023-08-30T12:13:20;19.67;;;7.45;;
43529;SDS011;55654;50.966;6.878;2023-08-30T12:15:57;13.20;;;6.82;;
43529;SDS011;55654;50.966;6.878;2023-08-30T12:18:27;8.43;;;5.55;;
43529;SDS011;55654;50.966;6.878;2023-08-30T12:20:55;18.25;;;6.45;;
43529;SDS011;55654;50.966;6.878;2023-08-30T12:23:22;16.75;;;6.22;;
43529;SDS011;55654;50.966;6.878;2023-08-30T12:28:29;10.07;;;6.25;;
43529;SDS011;55654;50.966;6.878;2023-08-30T12:30:56;16.05;;;8.43;;
43529;SDS011;55654;50.966;6.878;2023-08-30T12:33:23;11.38;;;6.40;;
43529;SDS011;55654;50.966;6.878;2023-08-30T12:35:50;12.32;;;7.05;;
43529;SDS011;55654;50.966;6.878;2023-08-30T12:38:19;14.27;;;6.82;;
43529;SDS011;55654;50.966;6.878;2023-08-30T12:40:49;8.85;;;5.18;;
43529;SDS011;55654;50.966;6.878;2023-08-30T12:43:20;15.15;;;6.45;;
43529;SDS011;55654;50.966;6.878;2023-08-30T12:45:49;8.50;;;4.30;;
43529;SDS011;55654;50.966;6.878;2023-08-30T12:48:15;8.75;;;4.03;;
43529;SDS011;55654;50.966;6.878;2023-08-30T12:50:46;13.07;;;4.80;;
43529;SDS011;55654;50.966;6.878;2023-08-30T12:53:12;6.90;;;4.25;;
43529;SDS011;55654;50.966;6.878;2023-08-30T12:55:44;8.03;;;4.50;;
43529;SDS011;55654;50.966;6.878;2023-08-30T12:58:10;5.80;;;4.22;;
43529;SDS011;55654;50.966;6.878;2023-08-30T13:00:40;5.50;;;4.25;;
43529;SDS011;55654;50.966;6.878;2023-08-30T13:03:06;8.73;;;4.57;;
43529;SDS011;55654;50.966;6.878;2023-08-30T13:05:32;7.05;;;4.93;;
43529;SDS011;55654;50.966;6.878;2023-08-30T13:08:14;7.57;;;4.95;;
43529;SDS011;55654;50.966;6.878;2023-08-30T13:10:40;13.53;;;5.20;;
43529;SDS011;55654;50.966;6.878;2023-08-30T13:13:08;5.90;;;4.65;;
43529;SDS011;55654;50.966;6.878;2023-08-30T13:15:42;6.78;;;4.15;;
43529;SDS011;55654;50.966;6.878;2023-08-30T13:18:08;10.05;;;5.32;;
43529;SDS011;55654;50.966;6.878;2023-08-30T13:20:37;7.90;;;4.60;;
43529;SDS011;55654;50.966;6.878;2023-08-30T13:23:04;5.35;;;4.18;;
43529;SDS011;55654;50.966;6.878;2023-08-30T13:25:30;27.77;;;5.80;;
43529;SDS011;55654;50.966;6.878;2023-08-30T13:27:58;13.27;;;4.57;;
43529;SDS011;55654;50.966;6.878;2023-08-30T13:30:24;10.30;;;4.15;;
43529;SDS011;55654;50.966;6.878;2023-08-30T13:32:49;14.88;;;4.70;;
43529;SDS011;55654;50.966;6.878;2023-08-30T13:35:15;9.75;;;5.13;;
43529;SDS011;55654;50.966;6.878;2023-08-30T13:37:41;8.60;;;5.28;;
43529;SDS011;55654;50.966;6.878;2023-08-30T13:40:07;9.10;;;5.03;;
43529;SDS011;55654;50.966;6.878;2023-08-30T13:42:33;11.18;;;4.88;;
43529;SDS011;55654;50.966;6.878;2023-08-30T13:44:59;8.57;;;4.38;;
43529;SDS011;55654;50.966;6.878;2023-08-30T13:47:24;11.10;;;5.38;;
43529;SDS011;55654;50.966;6.878;2023-08-30T13:49:50;5.85;;;4.25;;
43529;SDS011;55654;50.966;6.878;2023-08-30T13:52:16;8.55;;;4.93;;
43529;SDS011;55654;50.966;6.878;2023-08-30T13:54:42;11.20;;;4.78;;
43529;SDS011;55654;50.966;6.878;2023-08-30T13:57:08;19.35;;;4.82;;
43529;SDS011;55654;50.966;6.878;2023-08-30T13:59:34;10.25;;;4.90;;
43529;SDS011;55654;50.966;6.878;2023-08-30T14:02:01;8.68;;;4.63;;
43529;SDS011;55654;50.966;6.878;2023-08-30T14:04:29;5.85;;;4.05;;
43529;SDS011;55654;50.966;6.878;2023-08-30T14:06:57;9.60;;;5.40;;
43529;SDS011;55654;50.966;6.878;2023-08-30T14:09:25;15.38;;;5.22;;
43529;SDS011;55654;50.966;6.878;2023-08-30T14:11:51;16.17;;;5.47;;
43529;SDS011;55654;50.966;6.878;2023-08-30T14:14:17;20.65;;;5.95;;
43529;SDS011;55654;50.966;6.878;2023-08-30T14:16:52;19.85;;;6.43;;
43529;SDS011;55654;50.966;6.878;2023-08-30T14:19:18;22.05;;;7.13;;
43529;SDS011;55654;50.966;6.878;2023-08-30T14:21:44;49.08;;;9.45;;
43529;SDS011;55654;50.966;6.878;2023-08-30T14:24:10;26.02;;;7.78;;
43529;SDS011;55654;50.966;6.878;2023-08-30T14:26:36;16.67;;;6.63;;
43529;SDS011;55654;50.966;6.878;2023-08-30T14:29:02;24.50;;;6.78;;
43529;SDS011;55654;50.966;6.878;2023-08-30T14:31:28;18.88;;;6.55;;
43529;SDS011;55654;50.966;6.878;2023-08-30T14:33:55;20.52;;;7.25;;
43529;SDS011;55654;50.966;6.878;2023-08-30T14:36:26;15.73;;;6.57;;
43529;SDS011;55654;50.966;6.878;2023-08-30T14:38:52;43.33;;;8.98;;
43529;SDS011;55654;50.966;6.878;2023-08-30T14:41:17;22.67;;;7.13;;
43529;SDS011;55654;50.966;6.878;2023-08-30T14:43:43;11.32;;;6.95;;
43529;SDS011;55654;50.966;6.878;2023-08-30T14:46:09;10.23;;;6.13;;
43529;SDS011;55654;50.966;6.878;2023-08-30T14:48:35;15.57;;;7.18;;